VJC448 VVTS-VVDN
Flight info
| Callsign | VJC448 |
|---|---|
| Flight time | 1h 1m |
| Altitude | 29000 |
| Route | PATMA5L PATMA Q2 SADAS Q7 MUMGA/K0850F350 Q1 SADIN SADIN2K |
| Aircraft | A21N/M-SDE3FGHIRWY/LB1 |
Departure
| Time | 2026-04-22 14:00 |
|---|---|
| Airport | Tan Son Nhat International Airport (VVTS) |
Arrival
| Time | 2026-04-22 15:02 |
|---|---|
| Airport | Da Nang International Airport (VVDN) |
| Time | Latitude | Longitude | Altitude | Speed | Heading |
|---|---|---|---|---|---|
| 2026-04-22 13:22 | 10.81260 | 106.66116 | 35 ft | 0 kts | 95° |
| 2026-04-22 13:46 | 10.81261 | 106.66108 | 35 ft | 2 kts | 95° |
| 2026-04-22 13:47 | 10.81262 | 106.66093 | 35 ft | 2 kts | 95° |
| 2026-04-22 13:47 | 10.81263 | 106.66083 | 34 ft | 2 kts | 95° |
| 2026-04-22 13:47 | 10.81263 | 106.66067 | 34 ft | 2 kts | 79° |
| 2026-04-22 13:47 | 10.81259 | 106.66053 | 34 ft | 2 kts | 69° |
| 2026-04-22 13:48 | 10.81252 | 106.66039 | 34 ft | 2 kts | 57° |
| 2026-04-22 13:48 | 10.81243 | 106.66027 | 34 ft | 2 kts | 45° |
| 2026-04-22 13:48 | 10.81232 | 106.66017 | 34 ft | 2 kts | 33° |
| 2026-04-22 13:48 | 10.81218 | 106.66009 | 34 ft | 2 kts | 22° |
| 2026-04-22 13:49 | 10.81204 | 106.66005 | 34 ft | 2 kts | 10° |
| 2026-04-22 13:49 | 10.81197 | 106.66004 | 34 ft | 1 kts | 3° |
| 2026-04-22 13:49 | 10.81193 | 106.66004 | 34 ft | 0 kts | 5° |
| 2026-04-22 13:53 | 10.81200 | 106.66005 | 34 ft | 2 kts | 12° |
| 2026-04-22 13:54 | 10.81225 | 106.66010 | 34 ft | 4 kts | 11° |
| 2026-04-22 13:54 | 10.81265 | 106.66015 | 33 ft | 7 kts | 5° |
| 2026-04-22 13:54 | 10.81323 | 106.66021 | 32 ft | 9 kts | 5° |
| 2026-04-22 13:54 | 10.81396 | 106.66028 | 31 ft | 11 kts | 6° |
| 2026-04-22 13:55 | 10.81484 | 106.66035 | 29 ft | 13 kts | 5° |
| 2026-04-22 13:55 | 10.81581 | 106.66045 | 29 ft | 14 kts | 5° |
| 2026-04-22 13:55 | 10.81682 | 106.66054 | 28 ft | 15 kts | 5° |
| 2026-04-22 13:55 | 10.81787 | 106.66064 | 28 ft | 15 kts | 5° |
| 2026-04-22 13:56 | 10.81875 | 106.66111 | 28 ft | 15 kts | 62° |
| 2026-04-22 13:56 | 10.81914 | 106.66210 | 28 ft | 15 kts | 69° |
| 2026-04-22 13:56 | 10.81951 | 106.66309 | 28 ft | 15 kts | 69° |
| 2026-04-22 13:56 | 10.81989 | 106.66409 | 28 ft | 15 kts | 69° |
| 2026-04-22 13:57 | 10.82026 | 106.66507 | 29 ft | 14 kts | 70° |
| 2026-04-22 13:57 | 10.82061 | 106.66601 | 30 ft | 14 kts | 69° |
| 2026-04-22 13:57 | 10.82095 | 106.66692 | 31 ft | 13 kts | 70° |
| 2026-04-22 13:57 | 10.82128 | 106.66775 | 32 ft | 12 kts | 69° |
| 2026-04-22 13:58 | 10.82159 | 106.66860 | 32 ft | 12 kts | 69° |
| 2026-04-22 13:58 | 10.82189 | 106.66939 | 34 ft | 11 kts | 70° |
| 2026-04-22 13:58 | 10.82224 | 106.67002 | 35 ft | 9 kts | 25° |
| 2026-04-22 13:58 | 10.82294 | 106.66991 | 35 ft | 10 kts | 336° |
| 2026-04-22 13:59 | 10.82357 | 106.66950 | 34 ft | 9 kts | 323° |
| 2026-04-22 13:59 | 10.82359 | 106.66923 | 34 ft | 3 kts | 251° |
| 2026-04-22 13:59 | 10.82351 | 106.66898 | 33 ft | 21 kts | 250° |
| 2026-04-22 13:59 | 10.82190 | 106.66493 | 32 ft | 97 kts | 247° |
| 2026-04-22 14:00 | 10.81877 | 106.65641 | 29 ft | 158 kts | 248° |
| 2026-04-22 14:00 | 10.81446 | 106.64496 | 363 ft | 178 kts | 245° |
| 2026-04-22 14:00 | 10.80988 | 106.63324 | 973 ft | 183 kts | 245° |
| 2026-04-22 14:00 | 10.80541 | 106.62118 | 1657 ft | 185 kts | 244° |
| 2026-04-22 14:01 | 10.80074 | 106.60862 | 2212 ft | 196 kts | 245° |
| 2026-04-22 14:01 | 10.79570 | 106.59525 | 2661 ft | 209 kts | 245° |
| 2026-04-22 14:01 | 10.79132 | 106.58057 | 2944 ft | 227 kts | 262° |
| 2026-04-22 14:01 | 10.79544 | 106.56437 | 3143 ft | 251 kts | 305° |
| 2026-04-22 14:02 | 10.80938 | 106.55326 | 3416 ft | 265 kts | 342° |
| 2026-04-22 14:02 | 10.82794 | 106.55181 | 3790 ft | 274 kts | 9° |
| 2026-04-22 14:02 | 10.84700 | 106.55446 | 4426 ft | 275 kts | 8° |
| 2026-04-22 14:02 | 10.86618 | 106.55677 | 5100 ft | 275 kts | 7° |
| 2026-04-22 14:03 | 10.88490 | 106.55913 | 5846 ft | 273 kts | 7° |
| 2026-04-22 14:03 | 10.90366 | 106.56161 | 6585 ft | 271 kts | 7° |
| 2026-04-22 14:03 | 10.92264 | 106.56406 | 7205 ft | 274 kts | 7° |
| 2026-04-22 14:03 | 10.94194 | 106.56642 | 7779 ft | 278 kts | 7° |
| 2026-04-22 14:04 | 10.95868 | 106.56838 | 8272 ft | 282 kts | 7° |
| 2026-04-22 14:04 | 10.97818 | 106.57204 | 8822 ft | 285 kts | 22° |
| 2026-04-22 14:04 | 10.99470 | 106.58317 | 9386 ft | 285 kts | 47° |
| 2026-04-22 14:04 | 11.00705 | 106.59869 | 9970 ft | 287 kts | 54° |
| 2026-04-22 14:05 | 11.01897 | 106.61544 | 10326 ft | 297 kts | 54° |
| 2026-04-22 14:05 | 11.03147 | 106.63282 | 10566 ft | 311 kts | 54° |
| 2026-04-22 14:05 | 11.05885 | 106.66957 | 11215 ft | 332 kts | 53° |
| 2026-04-22 14:06 | 11.07307 | 106.68829 | 11735 ft | 335 kts | 52° |
| 2026-04-22 14:06 | 11.08758 | 106.70730 | 12251 ft | 337 kts | 52° |
| 2026-04-22 14:06 | 11.10220 | 106.72640 | 12714 ft | 341 kts | 52° |
| 2026-04-22 14:06 | 11.11687 | 106.74554 | 13143 ft | 344 kts | 52° |
| 2026-04-22 14:07 | 11.13157 | 106.76473 | 13610 ft | 347 kts | 52° |
| 2026-04-22 14:07 | 11.14658 | 106.78432 | 14088 ft | 349 kts | 52° |
| 2026-04-22 14:07 | 11.16139 | 106.80363 | 14527 ft | 351 kts | 52° |
| 2026-04-22 14:07 | 11.17664 | 106.82353 | 14967 ft | 354 kts | 52° |
| 2026-04-22 14:08 | 11.19174 | 106.84324 | 15386 ft | 356 kts | 52° |
| 2026-04-22 14:08 | 11.20762 | 106.86279 | 15780 ft | 359 kts | 44° |
| 2026-04-22 14:08 | 11.22845 | 106.87674 | 16147 ft | 363 kts | 25° |
| 2026-04-22 14:08 | 11.25195 | 106.88683 | 16580 ft | 364 kts | 22° |
| 2026-04-22 14:09 | 11.27548 | 106.89634 | 16943 ft | 367 kts | 22° |
| 2026-04-22 14:09 | 11.29949 | 106.90628 | 17314 ft | 370 kts | 23° |
| 2026-04-22 14:09 | 11.32325 | 106.91643 | 17688 ft | 373 kts | 23° |
| 2026-04-22 14:09 | 11.34735 | 106.92698 | 18054 ft | 375 kts | 24° |
| 2026-04-22 14:10 | 11.37127 | 106.93761 | 18420 ft | 377 kts | 24° |
| 2026-04-22 14:10 | 11.39522 | 106.94835 | 18786 ft | 379 kts | 24° |
| 2026-04-22 14:10 | 11.41962 | 106.95936 | 19157 ft | 380 kts | 25° |
| 2026-04-22 14:10 | 11.44392 | 106.97035 | 19516 ft | 382 kts | 25° |
| 2026-04-22 14:11 | 11.46832 | 106.98142 | 19875 ft | 384 kts | 25° |
| 2026-04-22 14:11 | 11.49259 | 106.99244 | 20225 ft | 385 kts | 25° |
| 2026-04-22 14:11 | 11.51727 | 107.00367 | 20564 ft | 387 kts | 25° |
| 2026-04-22 14:11 | 11.54217 | 107.01499 | 20900 ft | 389 kts | 25° |
| 2026-04-22 14:12 | 11.56683 | 107.02621 | 21230 ft | 390 kts | 25° |
| 2026-04-22 14:12 | 11.59187 | 107.03760 | 21552 ft | 392 kts | 25° |
| 2026-04-22 14:12 | 11.61695 | 107.04901 | 21868 ft | 394 kts | 25° |
| 2026-04-22 14:12 | 11.64240 | 107.06060 | 22177 ft | 396 kts | 25° |
| 2026-04-22 14:13 | 11.66771 | 107.07212 | 22492 ft | 397 kts | 25° |
| 2026-04-22 14:13 | 11.69332 | 107.08378 | 22808 ft | 399 kts | 25° |
| 2026-04-22 14:13 | 11.71888 | 107.09543 | 23141 ft | 399 kts | 25° |
| 2026-04-22 14:13 | 11.74454 | 107.10712 | 23451 ft | 401 kts | 25° |
| 2026-04-22 14:14 | 11.77033 | 107.11887 | 23769 ft | 402 kts | 25° |
| 2026-04-22 14:14 | 11.79618 | 107.13067 | 24087 ft | 403 kts | 25° |
| 2026-04-22 14:14 | 11.82244 | 107.14265 | 24407 ft | 404 kts | 25° |
| 2026-04-22 14:14 | 11.84839 | 107.15449 | 24706 ft | 405 kts | 25° |
| 2026-04-22 14:15 | 11.87463 | 107.16645 | 25019 ft | 406 kts | 25° |
| 2026-04-22 14:15 | 11.90050 | 107.17826 | 25304 ft | 408 kts | 25° |
| 2026-04-22 14:15 | 11.92671 | 107.19021 | 25576 ft | 409 kts | 25° |
| 2026-04-22 14:15 | 11.95280 | 107.20213 | 25855 ft | 411 kts | 26° |
| 2026-04-22 14:16 | 11.97911 | 107.21413 | 26124 ft | 412 kts | 26° |
| 2026-04-22 14:16 | 12.00548 | 107.22617 | 26402 ft | 413 kts | 26° |
| 2026-04-22 14:16 | 12.03207 | 107.23830 | 26674 ft | 414 kts | 26° |
| 2026-04-22 14:16 | 12.05828 | 107.25029 | 26918 ft | 416 kts | 26° |
| 2026-04-22 14:17 | 12.08513 | 107.26256 | 27178 ft | 417 kts | 26° |
| 2026-04-22 14:17 | 12.11169 | 107.27470 | 27437 ft | 418 kts | 26° |
| 2026-04-22 14:17 | 12.13871 | 107.28706 | 27693 ft | 419 kts | 26° |
| 2026-04-22 14:17 | 12.16531 | 107.29922 | 27949 ft | 420 kts | 26° |
| 2026-04-22 14:18 | 12.19246 | 107.31165 | 28210 ft | 422 kts | 25° |
| 2026-04-22 14:18 | 12.21938 | 107.32396 | 28463 ft | 423 kts | 25° |
| 2026-04-22 14:18 | 12.24633 | 107.33628 | 28727 ft | 424 kts | 25° |
| 2026-04-22 14:18 | 12.27323 | 107.34859 | 28952 ft | 425 kts | 25° |
| 2026-04-22 14:19 | 12.30067 | 107.36114 | 28975 ft | 425 kts | 25° |
| 2026-04-22 14:19 | 12.35502 | 107.38603 | 28976 ft | 424 kts | 25° |
| 2026-04-22 14:20 | 12.43617 | 107.42320 | 28971 ft | 425 kts | 25° |
| 2026-04-22 14:20 | 12.49020 | 107.44797 | 28966 ft | 425 kts | 25° |
| 2026-04-22 14:21 | 12.57168 | 107.48535 | 28947 ft | 424 kts | 25° |
| 2026-04-22 14:22 | 12.65335 | 107.52283 | 28924 ft | 424 kts | 25° |
| 2026-04-22 14:23 | 12.73454 | 107.56013 | 28895 ft | 425 kts | 25° |
| 2026-04-22 14:23 | 12.78902 | 107.58516 | 28875 ft | 425 kts | 25° |
| 2026-04-22 14:24 | 12.84323 | 107.61009 | 28870 ft | 425 kts | 25° |
| 2026-04-22 14:24 | 12.89718 | 107.63491 | 28862 ft | 424 kts | 25° |
| 2026-04-22 14:25 | 12.95153 | 107.65994 | 28858 ft | 425 kts | 26° |
| 2026-04-22 14:25 | 13.00556 | 107.68481 | 28851 ft | 425 kts | 25° |
| 2026-04-22 14:26 | 13.05990 | 107.70984 | 28853 ft | 425 kts | 26° |
| 2026-04-22 14:26 | 13.11433 | 107.73492 | 28848 ft | 425 kts | 26° |
| 2026-04-22 14:27 | 13.16851 | 107.75992 | 28851 ft | 425 kts | 26° |
| 2026-04-22 14:27 | 13.22270 | 107.78492 | 28848 ft | 425 kts | 26° |
| 2026-04-22 14:28 | 13.27692 | 107.80981 | 28855 ft | 425 kts | 24° |
| 2026-04-22 14:28 | 13.33451 | 107.82670 | 28863 ft | 428 kts | 11° |
| 2026-04-22 14:29 | 13.39461 | 107.83086 | 28877 ft | 430 kts | 2° |
| 2026-04-22 14:29 | 13.45493 | 107.83130 | 28881 ft | 430 kts | 2° |
| 2026-04-22 14:30 | 13.51483 | 107.83170 | 28884 ft | 430 kts | 2° |
| 2026-04-22 14:30 | 13.57505 | 107.83217 | 28892 ft | 429 kts | 2° |
| 2026-04-22 14:31 | 13.63507 | 107.83270 | 28897 ft | 429 kts | 2° |
| 2026-04-22 14:31 | 13.69546 | 107.83325 | 28906 ft | 430 kts | 2° |
| 2026-04-22 14:32 | 13.75590 | 107.83379 | 28917 ft | 430 kts | 2° |
| 2026-04-22 14:32 | 13.81617 | 107.83433 | 28929 ft | 430 kts | 2° |
| 2026-04-22 14:33 | 13.87625 | 107.83488 | 28941 ft | 429 kts | 2° |
| 2026-04-22 14:33 | 13.93678 | 107.83540 | 28943 ft | 429 kts | 2° |
| 2026-04-22 14:34 | 13.99689 | 107.83597 | 28944 ft | 429 kts | 2° |
| 2026-04-22 14:34 | 14.05735 | 107.83652 | 28947 ft | 429 kts | 2° |
| 2026-04-22 14:35 | 14.11777 | 107.83707 | 28953 ft | 430 kts | 2° |
| 2026-04-22 14:35 | 14.17794 | 107.83762 | 28961 ft | 430 kts | 2° |
| 2026-04-22 14:36 | 14.23790 | 107.83816 | 28984 ft | 429 kts | 2° |
| 2026-04-22 14:36 | 14.29806 | 107.83869 | 28995 ft | 429 kts | 2° |
| 2026-04-22 14:37 | 14.35836 | 107.83925 | 28998 ft | 429 kts | 2° |
| 2026-04-22 14:37 | 14.41846 | 107.83979 | 29002 ft | 429 kts | 2° |
| 2026-04-22 14:38 | 14.47898 | 107.84034 | 29003 ft | 430 kts | 2° |
| 2026-04-22 14:38 | 14.53955 | 107.84088 | 28996 ft | 430 kts | 2° |
| 2026-04-22 14:39 | 14.59954 | 107.84142 | 29017 ft | 429 kts | 2° |
| 2026-04-22 14:39 | 14.65982 | 107.84197 | 29024 ft | 429 kts | 2° |
| 2026-04-22 14:40 | 14.75012 | 107.84277 | 29040 ft | 429 kts | 1° |
| 2026-04-22 14:40 | 14.80994 | 107.84330 | 28715 ft | 430 kts | 1° |
| 2026-04-22 14:41 | 14.83986 | 107.84362 | 28246 ft | 426 kts | 3° |
| 2026-04-22 14:41 | 14.86917 | 107.84618 | 27778 ft | 422 kts | 9° |
| 2026-04-22 14:41 | 14.89779 | 107.85205 | 27321 ft | 417 kts | 15° |
| 2026-04-22 14:41 | 14.92526 | 107.86086 | 26875 ft | 413 kts | 20° |
| 2026-04-22 14:42 | 14.95250 | 107.87093 | 26435 ft | 409 kts | 21° |
| 2026-04-22 14:42 | 14.97918 | 107.88103 | 26011 ft | 405 kts | 21° |
| 2026-04-22 14:42 | 15.00547 | 107.89099 | 25581 ft | 401 kts | 21° |
| 2026-04-22 14:42 | 15.03154 | 107.90084 | 25154 ft | 398 kts | 21° |
| 2026-04-22 14:43 | 15.05756 | 107.91065 | 24701 ft | 395 kts | 21° |
| 2026-04-22 14:43 | 15.08343 | 107.92038 | 24240 ft | 393 kts | 21° |
| 2026-04-22 14:43 | 15.10920 | 107.93007 | 23777 ft | 390 kts | 21° |
| 2026-04-22 14:43 | 15.13498 | 107.93977 | 23293 ft | 389 kts | 21° |
| 2026-04-22 14:44 | 15.16056 | 107.94938 | 22814 ft | 387 kts | 21° |
| 2026-04-22 14:44 | 15.18594 | 107.95892 | 22340 ft | 385 kts | 21° |
| 2026-04-22 14:44 | 15.21129 | 107.96847 | 21866 ft | 384 kts | 21° |
| 2026-04-22 14:44 | 15.23660 | 107.97801 | 21371 ft | 383 kts | 21° |
| 2026-04-22 14:45 | 15.26144 | 107.98737 | 20885 ft | 382 kts | 21° |
| 2026-04-22 14:45 | 15.28625 | 107.99672 | 20408 ft | 381 kts | 21° |
| 2026-04-22 14:45 | 15.31122 | 108.00611 | 19923 ft | 380 kts | 20° |
| 2026-04-22 14:45 | 15.33633 | 108.01556 | 19440 ft | 379 kts | 20° |
| 2026-04-22 14:46 | 15.36095 | 108.02483 | 18973 ft | 377 kts | 20° |
| 2026-04-22 14:46 | 15.38559 | 108.03410 | 18526 ft | 375 kts | 20° |
| 2026-04-22 14:46 | 15.41085 | 108.04165 | 18040 ft | 374 kts | 10° |
| 2026-04-22 14:46 | 15.43651 | 108.04380 | 17575 ft | 372 kts | 358° |
| 2026-04-22 14:47 | 15.47072 | 108.04009 | 16963 ft | 369 kts | 351° |
| 2026-04-22 14:47 | 15.48781 | 108.03750 | 16651 ft | 368 kts | 351° |
| 2026-04-22 14:47 | 15.51316 | 108.03357 | 16182 ft | 367 kts | 351° |
| 2026-04-22 14:47 | 15.53864 | 108.02970 | 15735 ft | 365 kts | 351° |
| 2026-04-22 14:48 | 15.56367 | 108.02599 | 15282 ft | 364 kts | 351° |
| 2026-04-22 14:48 | 15.58855 | 108.02233 | 14803 ft | 363 kts | 351° |
| 2026-04-22 14:48 | 15.61377 | 108.01868 | 14455 ft | 357 kts | 352° |
| 2026-04-22 14:48 | 15.63809 | 108.01515 | 14293 ft | 345 kts | 352° |
| 2026-04-22 14:49 | 15.66145 | 108.01178 | 14088 ft | 336 kts | 352° |
| 2026-04-22 14:49 | 15.68421 | 108.00848 | 13962 ft | 324 kts | 352° |
| 2026-04-22 14:49 | 15.70633 | 108.00528 | 13843 ft | 313 kts | 352° |
| 2026-04-22 14:49 | 15.72778 | 108.00400 | 13611 ft | 306 kts | 9° |
| 2026-04-22 14:50 | 15.74705 | 108.01262 | 13386 ft | 298 kts | 40° |
| 2026-04-22 14:50 | 15.75885 | 108.02978 | 13110 ft | 292 kts | 72° |
| 2026-04-22 14:50 | 15.76197 | 108.05022 | 12797 ft | 290 kts | 86° |
| 2026-04-22 14:50 | 15.76304 | 108.07117 | 12417 ft | 290 kts | 86° |
| 2026-04-22 14:51 | 15.76365 | 108.09199 | 12052 ft | 289 kts | 97° |
| 2026-04-22 14:51 | 15.75653 | 108.11102 | 11704 ft | 285 kts | 129° |
| 2026-04-22 14:51 | 15.74078 | 108.12305 | 11304 ft | 282 kts | 161° |
| 2026-04-22 14:51 | 15.72234 | 108.12638 | 10965 ft | 279 kts | 175° |
| 2026-04-22 14:52 | 15.70290 | 108.12833 | 10634 ft | 277 kts | 174° |
| 2026-04-22 14:52 | 15.68395 | 108.13066 | 10311 ft | 276 kts | 173° |
| 2026-04-22 14:52 | 15.66483 | 108.13326 | 9970 ft | 274 kts | 172° |
| 2026-04-22 14:52 | 15.64598 | 108.13595 | 9663 ft | 271 kts | 172° |
| 2026-04-22 14:53 | 15.62736 | 108.13913 | 9331 ft | 270 kts | 163° |
| 2026-04-22 14:53 | 15.61165 | 108.14923 | 8971 ft | 266 kts | 127° |
| 2026-04-22 14:53 | 15.60446 | 108.16651 | 8655 ft | 262 kts | 94° |
| 2026-04-22 14:53 | 15.60609 | 108.18539 | 8348 ft | 261 kts | 78° |
| 2026-04-22 14:54 | 15.60934 | 108.20370 | 8036 ft | 261 kts | 79° |
| 2026-04-22 14:54 | 15.61230 | 108.22244 | 7716 ft | 260 kts | 80° |
| 2026-04-22 14:54 | 15.61596 | 108.24068 | 7362 ft | 259 kts | 66° |
| 2026-04-22 14:54 | 15.62713 | 108.25486 | 7009 ft | 254 kts | 29° |
| 2026-04-22 14:55 | 15.64384 | 108.25975 | 6682 ft | 252 kts | 357° |
| 2026-04-22 14:55 | 15.66121 | 108.25708 | 6371 ft | 251 kts | 349° |
| 2026-04-22 14:55 | 15.67844 | 108.25400 | 6049 ft | 250 kts | 350° |
| 2026-04-22 14:55 | 15.69563 | 108.25121 | 5745 ft | 248 kts | 351° |
| 2026-04-22 14:56 | 15.71275 | 108.24863 | 5538 ft | 250 kts | 352° |
| 2026-04-22 14:56 | 15.72997 | 108.24615 | 5224 ft | 249 kts | 352° |
| 2026-04-22 14:56 | 15.74720 | 108.24368 | 5054 ft | 247 kts | 352° |
| 2026-04-22 14:56 | 15.76428 | 108.24125 | 5051 ft | 249 kts | 352° |
| 2026-04-22 14:57 | 15.78133 | 108.23843 | 4964 ft | 245 kts | 349° |
| 2026-04-22 14:57 | 15.79817 | 108.23497 | 4671 ft | 243 kts | 349° |
| 2026-04-22 14:57 | 15.81482 | 108.23185 | 4287 ft | 238 kts | 351° |
| 2026-04-22 14:57 | 15.83100 | 108.22919 | 4049 ft | 231 kts | 352° |
| 2026-04-22 14:58 | 15.84698 | 108.22679 | 4058 ft | 231 kts | 352° |
| 2026-04-22 14:58 | 15.86240 | 108.22456 | 4128 ft | 211 kts | 352° |
| 2026-04-22 14:58 | 15.87679 | 108.22251 | 3783 ft | 203 kts | 352° |
| 2026-04-22 14:58 | 15.89047 | 108.22056 | 3443 ft | 196 kts | 352° |
| 2026-04-22 14:59 | 15.90381 | 108.21864 | 3069 ft | 191 kts | 352° |
| 2026-04-22 14:59 | 15.91702 | 108.21674 | 2639 ft | 190 kts | 352° |
| 2026-04-22 14:59 | 15.93009 | 108.21486 | 2226 ft | 188 kts | 351° |
| 2026-04-22 14:59 | 15.94301 | 108.21300 | 2035 ft | 186 kts | 351° |
| 2026-04-22 15:00 | 15.95593 | 108.21113 | 2041 ft | 187 kts | 351° |
| 2026-04-22 15:00 | 15.96883 | 108.20930 | 1749 ft | 186 kts | 352° |
| 2026-04-22 15:00 | 15.98196 | 108.20762 | 1086 ft | 191 kts | 352° |
| 2026-04-22 15:00 | 15.99465 | 108.20544 | 754 ft | 177 kts | 350° |
| 2026-04-22 15:01 | 16.00628 | 108.20370 | 529 ft | 160 kts | 353° |
| 2026-04-22 15:01 | 16.01684 | 108.20229 | 328 ft | 146 kts | 352° |
| 2026-04-22 15:01 | 16.02686 | 108.20084 | 143 ft | 144 kts | 353° |
| 2026-04-22 15:01 | 16.03673 | 108.19940 | 57 ft | 132 kts | 352° |
| 2026-04-22 15:02 | 16.04427 | 108.19831 | 56 ft | 84 kts | 353° |
| 2026-04-22 15:02 | 16.04803 | 108.19775 | 54 ft | 23 kts | 353° |
| 2026-04-22 15:02 | 16.04870 | 108.19788 | 54 ft | 8 kts | 40° |
| 2026-04-22 15:02 | 16.04885 | 108.19852 | 53 ft | 10 kts | 83° |
| 2026-04-22 15:03 | 16.04895 | 108.19927 | 52 ft | 10 kts | 82° |
| 2026-04-22 15:03 | 16.04907 | 108.20010 | 51 ft | 12 kts | 82° |
| 2026-04-22 15:03 | 16.04936 | 108.20093 | 50 ft | 12 kts | 30° |
| 2026-04-22 15:03 | 16.05028 | 108.20086 | 49 ft | 13 kts | 349° |
| 2026-04-22 15:04 | 16.05125 | 108.20071 | 49 ft | 14 kts | 353° |
| 2026-04-22 15:04 | 16.05198 | 108.20060 | 49 ft | 5 kts | 352° |
| 2026-04-22 15:04 | 16.05207 | 108.20061 | 49 ft | 0 kts | 33° |
| 2026-04-22 15:04 | 16.05210 | 108.20077 | 48 ft | 4 kts | 85° |
| 2026-04-22 15:05 | 16.05218 | 108.20144 | 48 ft | 10 kts | 82° |
| 2026-04-22 15:05 | 16.05223 | 108.20184 | 48 ft | 1 kts | 81° |
| 2026-04-22 15:05 | 16.05224 | 108.20190 | 48 ft | 0 kts | 81° |
| 2026-04-22 15:05 | 16.05225 | 108.20197 | 48 ft | 1 kts | 84° |
| 2026-04-22 15:06 | 16.05226 | 108.20209 | 48 ft | 0 kts | 81° |